sensor_id;sensor_type;location;lat;lon;timestamp;temperature;humidity
14378;DHT22;7272;53.668;9.578;2023-07-08T00:00:40;16.50;99.90
14378;DHT22;7272;53.668;9.578;2023-07-08T00:03:42;16.60;99.90
14378;DHT22;7272;53.668;9.578;2023-07-08T00:06:44;16.60;99.90
14378;DHT22;7272;53.668;9.578;2023-07-08T00:09:45;16.60;99.90
14378;DHT22;7272;53.668;9.578;2023-07-08T00:12:48;16.50;99.90
14378;DHT22;7272;53.668;9.578;2023-07-08T00:15:50;16.40;99.90
14378;DHT22;7272;53.668;9.578;2023-07-08T00:18:51;16.40;99.90
14378;DHT22;7272;53.668;9.578;2023-07-08T00:21:52;16.40;99.90
14378;DHT22;7272;53.668;9.578;2023-07-08T00:24:54;16.40;99.90
14378;DHT22;7272;53.668;9.578;2023-07-08T00:27:55;16.40;99.90
14378;DHT22;7272;53.668;9.578;2023-07-08T00:30:56;16.30;99.90
14378;DHT22;7272;53.668;9.578;2023-07-08T00:33:59;16.20;99.90
14378;DHT22;7272;53.668;9.578;2023-07-08T00:37:00;16.20;99.90
14378;DHT22;7272;53.668;9.578;2023-07-08T00:40:13;16.20;99.90
14378;DHT22;7272;53.668;9.578;2023-07-08T00:43:15;16.10;99.90
14378;DHT22;7272;53.668;9.578;2023-07-08T00:46:25;16.20;99.90
14378;DHT22;7272;53.668;9.578;2023-07-08T00:49:37;16.20;99.90
14378;DHT22;7272;53.668;9.578;2023-07-08T00:52:42;16.10;99.90
14378;DHT22;7272;53.668;9.578;2023-07-08T00:55:45;16.00;99.90
14378;DHT22;7272;53.668;9.578;2023-07-08T00:58:49;15.90;99.90
14378;DHT22;7272;53.668;9.578;2023-07-08T01:01:54;15.90;99.90
14378;DHT22;7272;53.668;9.578;2023-07-08T01:05:01;15.80;99.90
14378;DHT22;7272;53.668;9.578;2023-07-08T01:08:05;16.00;99.90
14378;DHT22;7272;53.668;9.578;2023-07-08T01:11:06;16.10;99.90
14378;DHT22;7272;53.668;9.578;2023-07-08T01:14:10;16.00;99.90
14378;DHT22;7272;53.668;9.578;2023-07-08T01:17:13;15.90;99.90
14378;DHT22;7272;53.668;9.578;2023-07-08T01:20:15;15.90;99.90
14378;DHT22;7272;53.668;9.578;2023-07-08T01:23:17;15.80;99.90
14378;DHT22;7272;53.668;9.578;2023-07-08T01:26:22;15.70;99.90
14378;DHT22;7272;53.668;9.578;2023-07-08T01:29:24;15.70;99.90
14378;DHT22;7272;53.668;9.578;2023-07-08T01:32:25;15.70;99.90
14378;DHT22;7272;53.668;9.578;2023-07-08T01:35:27;15.70;99.90
14378;DHT22;7272;53.668;9.578;2023-07-08T01:38:28;15.60;99.90
14378;DHT22;7272;53.668;9.578;2023-07-08T01:41:30;15.60;99.90
14378;DHT22;7272;53.668;9.578;2023-07-08T01:44:33;15.60;99.90
14378;DHT22;7272;53.668;9.578;2023-07-08T01:47:34;15.60;99.90
14378;DHT22;7272;53.668;9.578;2023-07-08T01:50:38;15.60;99.90
14378;DHT22;7272;53.668;9.578;2023-07-08T01:53:43;15.60;99.90
14378;DHT22;7272;53.668;9.578;2023-07-08T01:56:44;15.60;99.90
14378;DHT22;7272;53.668;9.578;2023-07-08T01:59:45;15.60;99.90
14378;DHT22;7272;53.668;9.578;2023-07-08T02:02:47;15.40;99.90
14378;DHT22;7272;53.668;9.578;2023-07-08T02:05:48;15.40;99.90
14378;DHT22;7272;53.668;9.578;2023-07-08T02:08:50;15.30;99.90
14378;DHT22;7272;53.668;9.578;2023-07-08T02:11:52;15.20;99.90
14378;DHT22;7272;53.668;9.578;2023-07-08T02:14:53;15.30;99.90
14378;DHT22;7272;53.668;9.578;2023-07-08T02:17:54;15.40;99.90
14378;DHT22;7272;53.668;9.578;2023-07-08T02:20:55;15.40;99.90
14378;DHT22;7272;53.668;9.578;2023-07-08T02:23:57;15.40;99.90
14378;DHT22;7272;53.668;9.578;2023-07-08T02:26:58;15.40;99.90
14378;DHT22;7272;53.668;9.578;2023-07-08T02:30:00;15.40;99.90
14378;DHT22;7272;53.668;9.578;2023-07-08T02:33:01;15.40;99.90
14378;DHT22;7272;53.668;9.578;2023-07-08T02:36:02;15.40;99.90
14378;DHT22;7272;53.668;9.578;2023-07-08T02:39:04;15.40;99.90
14378;DHT22;7272;53.668;9.578;2023-07-08T02:42:06;15.40;99.90
14378;DHT22;7272;53.668;9.578;2023-07-08T02:45:08;15.40;99.90
14378;DHT22;7272;53.668;9.578;2023-07-08T02:48:09;15.30;99.90
14378;DHT22;7272;53.668;9.578;2023-07-08T02:51:10;15.30;99.90
14378;DHT22;7272;53.668;9.578;2023-07-08T02:54:12;15.30;99.90
14378;DHT22;7272;53.668;9.578;2023-07-08T02:57:14;15.20;99.90
14378;DHT22;7272;53.668;9.578;2023-07-08T03:00:15;15.30;99.90
14378;DHT22;7272;53.668;9.578;2023-07-08T03:03:16;15.40;99.90
14378;DHT22;7272;53.668;9.578;2023-07-08T03:06:18;15.40;99.90
14378;DHT22;7272;53.668;9.578;2023-07-08T03:09:19;15.30;99.90
14378;DHT22;7272;53.668;9.578;2023-07-08T03:12:21;15.20;99.90
14378;DHT22;7272;53.668;9.578;2023-07-08T03:15:22;15.00;99.90
14378;DHT22;7272;53.668;9.578;2023-07-08T03:18:23;14.80;99.90
14378;DHT22;7272;53.668;9.578;2023-07-08T03:21:27;14.80;99.90
14378;DHT22;7272;53.668;9.578;2023-07-08T03:24:29;14.80;99.90
14378;DHT22;7272;53.668;9.578;2023-07-08T03:27:33;14.80;99.90
14378;DHT22;7272;53.668;9.578;2023-07-08T03:30:34;14.80;99.90
14378;DHT22;7272;53.668;9.578;2023-07-08T03:33:37;14.80;99.90
14378;DHT22;7272;53.668;9.578;2023-07-08T03:36:42;14.80;99.90
14378;DHT22;7272;53.668;9.578;2023-07-08T03:39:49;14.80;99.90
14378;DHT22;7272;53.668;9.578;2023-07-08T03:42:51;14.80;99.90
14378;DHT22;7272;53.668;9.578;2023-07-08T03:45:52;14.80;99.90
14378;DHT22;7272;53.668;9.578;2023-07-08T03:48:54;14.80;99.90
14378;DHT22;7272;53.668;9.578;2023-07-08T03:51:55;14.90;99.90
14378;DHT22;7272;53.668;9.578;2023-07-08T03:54:57;14.90;99.90
14378;DHT22;7272;53.668;9.578;2023-07-08T03:57:58;14.90;99.90
14378;DHT22;7272;53.668;9.578;2023-07-08T04:01:02;14.90;99.90
14378;DHT22;7272;53.668;9.578;2023-07-08T04:04:03;14.90;99.90
14378;DHT22;7272;53.668;9.578;2023-07-08T04:07:08;14.90;99.90
14378;DHT22;7272;53.668;9.578;2023-07-08T04:10:10;15.10;99.90
14378;DHT22;7272;53.668;9.578;2023-07-08T04:13:12;15.30;99.90
14378;DHT22;7272;53.668;9.578;2023-07-08T04:16:16;15.30;99.90
14378;DHT22;7272;53.668;9.578;2023-07-08T04:19:18;15.40;99.90
14378;DHT22;7272;53.668;9.578;2023-07-08T04:22:19;15.50;99.90
14378;DHT22;7272;53.668;9.578;2023-07-08T04:25:21;15.50;99.90
14378;DHT22;7272;53.668;9.578;2023-07-08T04:28:25;15.60;99.90
14378;DHT22;7272;53.668;9.578;2023-07-08T04:31:26;15.60;99.90
14378;DHT22;7272;53.668;9.578;2023-07-08T04:34:28;15.80;99.90
14378;DHT22;7272;53.668;9.578;2023-07-08T04:37:29;16.10;99.90
14378;DHT22;7272;53.668;9.578;2023-07-08T04:40:31;16.20;99.90
14378;DHT22;7272;53.668;9.578;2023-07-08T04:43:32;16.20;99.90
14378;DHT22;7272;53.668;9.578;2023-07-08T04:46:37;16.30;99.90
14378;DHT22;7272;53.668;9.578;2023-07-08T04:49:39;16.40;99.90
14378;DHT22;7272;53.668;9.578;2023-07-08T04:52:44;16.50;99.90
14378;DHT22;7272;53.668;9.578;2023-07-08T04:55:49;16.60;99.90
14378;DHT22;7272;53.668;9.578;2023-07-08T04:58:51;16.70;99.90
14378;DHT22;7272;53.668;9.578;2023-07-08T05:01:52;16.80;99.90
14378;DHT22;7272;53.668;9.578;2023-07-08T05:04:54;16.90;99.90
14378;DHT22;7272;53.668;9.578;2023-07-08T05:07:55;17.00;99.90
14378;DHT22;7272;53.668;9.578;2023-07-08T05:10:57;17.10;99.90
14378;DHT22;7272;53.668;9.578;2023-07-08T05:13:59;17.10;99.90
14378;DHT22;7272;53.668;9.578;2023-07-08T05:17:00;17.20;99.90
14378;DHT22;7272;53.668;9.578;2023-07-08T05:20:01;17.30;99.90
14378;DHT22;7272;53.668;9.578;2023-07-08T05:23:04;17.40;99.90
14378;DHT22;7272;53.668;9.578;2023-07-08T05:26:06;17.60;99.90
14378;DHT22;7272;53.668;9.578;2023-07-08T05:29:08;17.70;99.90
14378;DHT22;7272;53.668;9.578;2023-07-08T05:32:09;17.70;99.90
14378;DHT22;7272;53.668;9.578;2023-07-08T05:35:10;17.90;99.90
14378;DHT22;7272;53.668;9.578;2023-07-08T05:38:12;18.00;99.90
14378;DHT22;7272;53.668;9.578;2023-07-08T05:41:14;18.10;99.90
14378;DHT22;7272;53.668;9.578;2023-07-08T05:44:15;18.20;99.90
14378;DHT22;7272;53.668;9.578;2023-07-08T05:47:16;18.30;99.90
14378;DHT22;7272;53.668;9.578;2023-07-08T05:50:17;18.50;99.90
14378;DHT22;7272;53.668;9.578;2023-07-08T05:53:19;18.50;99.90
14378;DHT22;7272;53.668;9.578;2023-07-08T05:56:21;18.70;99.90
14378;DHT22;7272;53.668;9.578;2023-07-08T05:59:23;18.80;99.90
14378;DHT22;7272;53.668;9.578;2023-07-08T06:02:24;18.90;99.90
14378;DHT22;7272;53.668;9.578;2023-07-08T06:05:26;19.00;99.90
14378;DHT22;7272;53.668;9.578;2023-07-08T06:08:27;19.10;99.90
14378;DHT22;7272;53.668;9.578;2023-07-08T06:11:29;19.30;99.90
14378;DHT22;7272;53.668;9.578;2023-07-08T06:14:31;19.50;99.90
14378;DHT22;7272;53.668;9.578;2023-07-08T06:17:32;19.60;99.90
14378;DHT22;7272;53.668;9.578;2023-07-08T06:20:33;19.70;99.90
14378;DHT22;7272;53.668;9.578;2023-07-08T06:23:35;19.80;99.90
14378;DHT22;7272;53.668;9.578;2023-07-08T06:26:36;20.00;99.90
14378;DHT22;7272;53.668;9.578;2023-07-08T06:29:38;20.10;99.90
14378;DHT22;7272;53.668;9.578;2023-07-08T06:32:39;20.30;99.90
14378;DHT22;7272;53.668;9.578;2023-07-08T06:35:41;20.50;99.90
14378;DHT22;7272;53.668;9.578;2023-07-08T06:38:42;20.60;99.90
14378;DHT22;7272;53.668;9.578;2023-07-08T06:41:44;20.60;99.90
14378;DHT22;7272;53.668;9.578;2023-07-08T06:44:46;20.80;99.90
14378;DHT22;7272;53.668;9.578;2023-07-08T06:47:51;20.90;99.90
14378;DHT22;7272;53.668;9.578;2023-07-08T06:50:52;21.10;99.90
14378;DHT22;7272;53.668;9.578;2023-07-08T06:53:53;21.20;99.90
14378;DHT22;7272;53.668;9.578;2023-07-08T06:56:55;21.30;99.90
14378;DHT22;7272;53.668;9.578;2023-07-08T06:59:56;21.40;99.90
14378;DHT22;7272;53.668;9.578;2023-07-08T07:02:58;21.50;99.90
14378;DHT22;7272;53.668;9.578;2023-07-08T07:06:00;21.60;99.90
14378;DHT22;7272;53.668;9.578;2023-07-08T07:09:01;21.80;99.90
14378;DHT22;7272;53.668;9.578;2023-07-08T07:12:04;21.90;99.90
14378;DHT22;7272;53.668;9.578;2023-07-08T07:15:06;22.00;99.90
14378;DHT22;7272;53.668;9.578;2023-07-08T07:18:08;22.10;99.90
14378;DHT22;7272;53.668;9.578;2023-07-08T07:21:09;22.20;99.90
14378;DHT22;7272;53.668;9.578;2023-07-08T07:24:10;22.30;99.90
14378;DHT22;7272;53.668;9.578;2023-07-08T07:27:13;22.40;99.90
14378;DHT22;7272;53.668;9.578;2023-07-08T07:30:15;22.60;99.90
14378;DHT22;7272;53.668;9.578;2023-07-08T07:33:16;22.70;99.90
14378;DHT22;7272;53.668;9.578;2023-07-08T07:36:17;22.90;99.90
14378;DHT22;7272;53.668;9.578;2023-07-08T07:39:18;23.00;99.90
14378;DHT22;7272;53.668;9.578;2023-07-08T07:42:20;23.20;99.90
14378;DHT22;7272;53.668;9.578;2023-07-08T07:45:22;23.30;99.90
14378;DHT22;7272;53.668;9.578;2023-07-08T07:48:23;23.30;99.90
14378;DHT22;7272;53.668;9.578;2023-07-08T07:51:25;23.50;99.90
14378;DHT22;7272;53.668;9.578;2023-07-08T07:54:26;23.80;99.90
14378;DHT22;7272;53.668;9.578;2023-07-08T07:57:28;24.10;99.90
14378;DHT22;7272;53.668;9.578;2023-07-08T08:00:29;24.20;99.90
14378;DHT22;7272;53.668;9.578;2023-07-08T08:03:31;24.30;99.90
14378;DHT22;7272;53.668;9.578;2023-07-08T08:06:32;24.30;99.90
14378;DHT22;7272;53.668;9.578;2023-07-08T08:09:33;24.50;99.90
14378;DHT22;7272;53.668;9.578;2023-07-08T08:12:35;24.60;99.90
14378;DHT22;7272;53.668;9.578;2023-07-08T08:15:36;24.80;99.90
14378;DHT22;7272;53.668;9.578;2023-07-08T08:18:38;25.00;99.90
14378;DHT22;7272;53.668;9.578;2023-07-08T08:21:39;25.30;99.90
14378;DHT22;7272;53.668;9.578;2023-07-08T08:24:40;25.60;99.90
14378;DHT22;7272;53.668;9.578;2023-07-08T08:27:42;25.90;99.90
14378;DHT22;7272;53.668;9.578;2023-07-08T08:30:47;26.20;99.90
14378;DHT22;7272;53.668;9.578;2023-07-08T08:33:48;26.50;99.90
14378;DHT22;7272;53.668;9.578;2023-07-08T08:36:49;26.80;99.90
14378;DHT22;7272;53.668;9.578;2023-07-08T08:39:50;27.00;99.90
14378;DHT22;7272;53.668;9.578;2023-07-08T08:42:57;27.30;99.90
14378;DHT22;7272;53.668;9.578;2023-07-08T08:46:02;27.50;99.90
14378;DHT22;7272;53.668;9.578;2023-07-08T08:49:11;27.80;99.90
14378;DHT22;7272;53.668;9.578;2023-07-08T08:52:14;28.10;99.90
14378;DHT22;7272;53.668;9.578;2023-07-08T08:55:16;28.30;99.90
14378;DHT22;7272;53.668;9.578;2023-07-08T08:58:27;28.50;99.90
14378;DHT22;7272;53.668;9.578;2023-07-08T09:01:31;28.70;99.90
14378;DHT22;7272;53.668;9.578;2023-07-08T09:04:35;28.90;99.90
14378;DHT22;7272;53.668;9.578;2023-07-08T09:07:51;29.00;99.90
14378;DHT22;7272;53.668;9.578;2023-07-08T09:10:58;29.30;99.90
14378;DHT22;7272;53.668;9.578;2023-07-08T09:14:01;29.30;99.90
14378;DHT22;7272;53.668;9.578;2023-07-08T09:17:15;29.30;99.90
14378;DHT22;7272;53.668;9.578;2023-07-08T09:20:21;29.40;99.90
14378;DHT22;7272;53.668;9.578;2023-07-08T09:23:26;29.60;99.90
14378;DHT22;7272;53.668;9.578;2023-07-08T09:26:30;29.80;99.90
14378;DHT22;7272;53.668;9.578;2023-07-08T09:29:33;29.90;99.90
14378;DHT22;7272;53.668;9.578;2023-07-08T09:32:34;30.00;99.90
14378;DHT22;7272;53.668;9.578;2023-07-08T09:35:40;30.00;99.90
14378;DHT22;7272;53.668;9.578;2023-07-08T09:38:41;30.10;99.90
14378;DHT22;7272;53.668;9.578;2023-07-08T09:41:44;30.30;99.90
14378;DHT22;7272;53.668;9.578;2023-07-08T09:44:46;30.40;99.90
14378;DHT22;7272;53.668;9.578;2023-07-08T09:47:51;30.50;99.90
14378;DHT22;7272;53.668;9.578;2023-07-08T09:50:54;30.50;99.90
14378;DHT22;7272;53.668;9.578;2023-07-08T09:53:57;30.50;99.90
14378;DHT22;7272;53.668;9.578;2023-07-08T09:57:00;30.70;99.90
14378;DHT22;7272;53.668;9.578;2023-07-08T10:00:08;31.00;99.90
14378;DHT22;7272;53.668;9.578;2023-07-08T10:03:16;31.00;99.90
14378;DHT22;7272;53.668;9.578;2023-07-08T10:06:22;31.00;99.90
14378;DHT22;7272;53.668;9.578;2023-07-08T10:09:24;31.00;99.90
14378;DHT22;7272;53.668;9.578;2023-07-08T10:12:26;31.20;99.90
14378;DHT22;7272;53.668;9.578;2023-07-08T10:15:34;31.40;99.90
14378;DHT22;7272;53.668;9.578;2023-07-08T10:18:37;31.40;99.90
14378;DHT22;7272;53.668;9.578;2023-07-08T10:21:48;31.40;99.90
14378;DHT22;7272;53.668;9.578;2023-07-08T10:25:02;31.50;99.90
14378;DHT22;7272;53.668;9.578;2023-07-08T10:28:17;31.60;99.90
14378;DHT22;7272;53.668;9.578;2023-07-08T10:31:28;31.80;99.90
14378;DHT22;7272;53.668;9.578;2023-07-08T10:34:39;31.80;99.90
14378;DHT22;7272;53.668;9.578;2023-07-08T10:37:54;31.90;99.90
14378;DHT22;7272;53.668;9.578;2023-07-08T10:41:00;32.00;99.90
14378;DHT22;7272;53.668;9.578;2023-07-08T10:44:10;32.10;99.90
14378;DHT22;7272;53.668;9.578;2023-07-08T10:47:25;32.20;99.90
14378;DHT22;7272;53.668;9.578;2023-07-08T10:50:40;32.30;99.90
14378;DHT22;7272;53.668;9.578;2023-07-08T10:54:00;32.10;99.90
14378;DHT22;7272;53.668;9.578;2023-07-08T10:57:12;32.10;99.90
14378;DHT22;7272;53.668;9.578;2023-07-08T11:00:24;32.00;99.90
14378;DHT22;7272;53.668;9.578;2023-07-08T11:03:59;32.30;99.90
14378;DHT22;7272;53.668;9.578;2023-07-08T11:07:10;32.40;99.90
14378;DHT22;7272;53.668;9.578;2023-07-08T11:10:17;32.40;99.90
14378;DHT22;7272;53.668;9.578;2023-07-08T11:13:21;32.50;99.90
14378;DHT22;7272;53.668;9.578;2023-07-08T11:16:26;32.60;99.90
14378;DHT22;7272;53.668;9.578;2023-07-08T11:19:34;32.70;99.90
14378;DHT22;7272;53.668;9.578;2023-07-08T11:22:38;32.70;99.90
14378;DHT22;7272;53.668;9.578;2023-07-08T11:25:43;32.70;99.90
14378;DHT22;7272;53.668;9.578;2023-07-08T11:28:46;32.60;99.90
14378;DHT22;7272;53.668;9.578;2023-07-08T11:31:49;32.80;99.90
14378;DHT22;7272;53.668;9.578;2023-07-08T11:34:53;33.00;99.90
14378;DHT22;7272;53.668;9.578;2023-07-08T11:37:56;33.00;99.90
14378;DHT22;7272;53.668;9.578;2023-07-08T11:41:00;33.10;99.90
14378;DHT22;7272;53.668;9.578;2023-07-08T11:44:04;33.10;99.90
14378;DHT22;7272;53.668;9.578;2023-07-08T11:47:15;33.30;99.90
14378;DHT22;7272;53.668;9.578;2023-07-08T11:50:21;33.20;99.90
14378;DHT22;7272;53.668;9.578;2023-07-08T11:53:36;33.40;99.90
14378;DHT22;7272;53.668;9.578;2023-07-08T11:56:48;33.40;99.90
14378;DHT22;7272;53.668;9.578;2023-07-08T12:00:11;33.30;99.90
14378;DHT22;7272;53.668;9.578;2023-07-08T12:03:19;33.20;99.90
14378;DHT22;7272;53.668;9.578;2023-07-08T12:06:46;33.20;99.90
14378;DHT22;7272;53.668;9.578;2023-07-08T12:09:50;33.20;99.90
14378;DHT22;7272;53.668;9.578;2023-07-08T12:12:58;33.20;99.90
14378;DHT22;7272;53.668;9.578;2023-07-08T12:15:59;33.30;99.90
14378;DHT22;7272;53.668;9.578;2023-07-08T12:19:03;33.30;99.90
14378;DHT22;7272;53.668;9.578;2023-07-08T12:26:28;33.30;99.90
14378;DHT22;7272;53.668;9.578;2023-07-08T12:29:29;33.30;99.90
14378;DHT22;7272;53.668;9.578;2023-07-08T12:32:30;33.30;99.90
14378;DHT22;7272;53.668;9.578;2023-07-08T12:35:33;33.50;99.90
14378;DHT22;7272;53.668;9.578;2023-07-08T12:38:39;33.60;99.90
14378;DHT22;7272;53.668;9.578;2023-07-08T12:41:42;33.50;99.90
14378;DHT22;7272;53.668;9.578;2023-07-08T12:44:43;33.70;99.90
14378;DHT22;7272;53.668;9.578;2023-07-08T12:47:45;33.80;99.90
14378;DHT22;7272;53.668;9.578;2023-07-08T12:50:46;33.70;99.90
14378;DHT22;7272;53.668;9.578;2023-07-08T12:53:51;33.70;99.90
14378;DHT22;7272;53.668;9.578;2023-07-08T12:56:54;33.50;99.90
14378;DHT22;7272;53.668;9.578;2023-07-08T12:59:55;33.60;99.90
14378;DHT22;7272;53.668;9.578;2023-07-08T13:03:01;33.60;99.90
14378;DHT22;7272;53.668;9.578;2023-07-08T13:06:05;33.50;99.90
14378;DHT22;7272;53.668;9.578;2023-07-08T13:09:11;33.70;99.90
14378;DHT22;7272;53.668;9.578;2023-07-08T13:12:21;33.80;99.90
14378;DHT22;7272;53.668;9.578;2023-07-08T13:15:28;33.70;99.90
14378;DHT22;7272;53.668;9.578;2023-07-08T13:18:33;33.70;99.90
14378;DHT22;7272;53.668;9.578;2023-07-08T13:21:34;33.80;99.90
14378;DHT22;7272;53.668;9.578;2023-07-08T13:24:36;33.70;99.90
14378;DHT22;7272;53.668;9.578;2023-07-08T13:27:40;33.70;99.90
14378;DHT22;7272;53.668;9.578;2023-07-08T13:30:50;33.70;99.90
14378;DHT22;7272;53.668;9.578;2023-07-08T13:33:53;33.70;99.90
14378;DHT22;7272;53.668;9.578;2023-07-08T13:36:55;33.70;99.90
14378;DHT22;7272;53.668;9.578;2023-07-08T13:39:56;33.60;99.90
14378;DHT22;7272;53.668;9.578;2023-07-08T13:42:58;33.60;99.90
14378;DHT22;7272;53.668;9.578;2023-07-08T13:46:00;33.60;99.90
14378;DHT22;7272;53.668;9.578;2023-07-08T13:49:07;33.60;99.90
14378;DHT22;7272;53.668;9.578;2023-07-08T13:52:16;33.60;99.90
14378;DHT22;7272;53.668;9.578;2023-07-08T13:55:21;33.50;99.90
14378;DHT22;7272;53.668;9.578;2023-07-08T13:58:27;33.30;99.90
14378;DHT22;7272;53.668;9.578;2023-07-08T14:01:31;33.20;99.90
14378;DHT22;7272;53.668;9.578;2023-07-08T14:04:34;33.30;99.90
14378;DHT22;7272;53.668;9.578;2023-07-08T14:07:36;33.20;99.90
14378;DHT22;7272;53.668;9.578;2023-07-08T14:10:37;33.00;99.90
14378;DHT22;7272;53.668;9.578;2023-07-08T14:13:39;32.90;99.90
14378;DHT22;7272;53.668;9.578;2023-07-08T14:16:42;32.90;99.90
14378;DHT22;7272;53.668;9.578;2023-07-08T14:19:45;32.90;99.90
14378;DHT22;7272;53.668;9.578;2023-07-08T14:22:46;32.90;99.90
14378;DHT22;7272;53.668;9.578;2023-07-08T14:25:47;32.90;99.90
14378;DHT22;7272;53.668;9.578;2023-07-08T14:28:49;32.90;99.90
14378;DHT22;7272;53.668;9.578;2023-07-08T14:31:51;32.80;99.90
14378;DHT22;7272;53.668;9.578;2023-07-08T14:34:54;32.80;99.90
14378;DHT22;7272;53.668;9.578;2023-07-08T14:37:56;32.70;99.90
14378;DHT22;7272;53.668;9.578;2023-07-08T14:40:59;32.50;99.90
14378;DHT22;7272;53.668;9.578;2023-07-08T14:44:01;32.30;99.90
14378;DHT22;7272;53.668;9.578;2023-07-08T14:47:04;32.40;99.90
14378;DHT22;7272;53.668;9.578;2023-07-08T14:50:13;32.30;99.90
14378;DHT22;7272;53.668;9.578;2023-07-08T14:53:16;32.30;99.90
14378;DHT22;7272;53.668;9.578;2023-07-08T14:56:25;32.20;99.90
14378;DHT22;7272;53.668;9.578;2023-07-08T14:59:30;32.20;99.90
14378;DHT22;7272;53.668;9.578;2023-07-08T15:02:33;32.00;99.90
14378;DHT22;7272;53.668;9.578;2023-07-08T15:05:36;31.90;99.90
14378;DHT22;7272;53.668;9.578;2023-07-08T15:08:37;31.90;99.90
14378;DHT22;7272;53.668;9.578;2023-07-08T15:11:39;31.80;99.90
14378;DHT22;7272;53.668;9.578;2023-07-08T15:14:42;31.70;99.90
14378;DHT22;7272;53.668;9.578;2023-07-08T15:17:44;31.70;99.90
14378;DHT22;7272;53.668;9.578;2023-07-08T15:20:46;31.60;99.90
14378;DHT22;7272;53.668;9.578;2023-07-08T15:23:47;31.40;99.90
14378;DHT22;7272;53.668;9.578;2023-07-08T15:26:48;31.60;99.90
14378;DHT22;7272;53.668;9.578;2023-07-08T15:29:51;31.60;99.90
14378;DHT22;7272;53.668;9.578;2023-07-08T15:32:53;31.50;99.90
14378;DHT22;7272;53.668;9.578;2023-07-08T15:35:54;31.40;99.90
14378;DHT22;7272;53.668;9.578;2023-07-08T15:38:56;31.30;99.90
14378;DHT22;7272;53.668;9.578;2023-07-08T15:41:57;31.20;99.90
14378;DHT22;7272;53.668;9.578;2023-07-08T15:44:59;31.30;99.90
14378;DHT22;7272;53.668;9.578;2023-07-08T15:48:01;31.20;99.90
14378;DHT22;7272;53.668;9.578;2023-07-08T15:51:02;31.10;99.90
14378;DHT22;7272;53.668;9.578;2023-07-08T15:54:04;31.00;99.90
14378;DHT22;7272;53.668;9.578;2023-07-08T15:57:07;30.90;99.90
14378;DHT22;7272;53.668;9.578;2023-07-08T16:00:17;31.00;99.90
14378;DHT22;7272;53.668;9.578;2023-07-08T16:03:24;31.00;99.90
14378;DHT22;7272;53.668;9.578;2023-07-08T16:06:26;30.90;99.90
14378;DHT22;7272;53.668;9.578;2023-07-08T16:09:27;30.80;99.90
14378;DHT22;7272;53.668;9.578;2023-07-08T16:12:28;30.70;99.90
14378;DHT22;7272;53.668;9.578;2023-07-08T16:15:32;30.60;99.90
14378;DHT22;7272;53.668;9.578;2023-07-08T16:18:33;30.50;99.90
14378;DHT22;7272;53.668;9.578;2023-07-08T16:21:35;30.50;99.90
14378;DHT22;7272;53.668;9.578;2023-07-08T16:24:36;30.40;99.90
14378;DHT22;7272;53.668;9.578;2023-07-08T16:27:37;30.30;99.90
14378;DHT22;7272;53.668;9.578;2023-07-08T16:30:39;30.40;99.90
14378;DHT22;7272;53.668;9.578;2023-07-08T16:33:41;30.40;99.90
14378;DHT22;7272;53.668;9.578;2023-07-08T16:36:42;30.30;99.90
14378;DHT22;7272;53.668;9.578;2023-07-08T16:39:43;30.10;99.90
14378;DHT22;7272;53.668;9.578;2023-07-08T16:42:47;29.90;99.90
14378;DHT22;7272;53.668;9.578;2023-07-08T16:45:49;29.70;99.90
14378;DHT22;7272;53.668;9.578;2023-07-08T16:48:51;29.50;99.90
14378;DHT22;7272;53.668;9.578;2023-07-08T16:51:52;29.50;99.90
14378;DHT22;7272;53.668;9.578;2023-07-08T16:54:53;29.40;99.90
14378;DHT22;7272;53.668;9.578;2023-07-08T16:57:54;29.30;99.90
14378;DHT22;7272;53.668;9.578;2023-07-08T17:00:56;29.20;99.90
14378;DHT22;7272;53.668;9.578;2023-07-08T17:03:58;29.20;99.90
14378;DHT22;7272;53.668;9.578;2023-07-08T17:06:59;29.10;99.90
14378;DHT22;7272;53.668;9.578;2023-07-08T17:10:00;28.90;99.90
14378;DHT22;7272;53.668;9.578;2023-07-08T17:13:01;28.80;99.90
14378;DHT22;7272;53.668;9.578;2023-07-08T17:16:04;28.80;99.90
14378;DHT22;7272;53.668;9.578;2023-07-08T17:19:07;28.60;99.90
14378;DHT22;7272;53.668;9.578;2023-07-08T17:22:10;28.50;99.90
14378;DHT22;7272;53.668;9.578;2023-07-08T17:25:16;28.50;99.90
14378;DHT22;7272;53.668;9.578;2023-07-08T17:28:18;28.60;99.90
14378;DHT22;7272;53.668;9.578;2023-07-08T17:31:21;28.60;99.90
14378;DHT22;7272;53.668;9.578;2023-07-08T17:34:25;28.40;99.90
14378;DHT22;7272;53.668;9.578;2023-07-08T17:37:27;28.30;99.90
14378;DHT22;7272;53.668;9.578;2023-07-08T17:40:29;28.20;99.90
14378;DHT22;7272;53.668;9.578;2023-07-08T17:43:30;28.10;99.90
14378;DHT22;7272;53.668;9.578;2023-07-08T17:46:32;28.10;99.90
14378;DHT22;7272;53.668;9.578;2023-07-08T17:49:33;28.00;99.90
14378;DHT22;7272;53.668;9.578;2023-07-08T17:52:35;27.80;99.90
14378;DHT22;7272;53.668;9.578;2023-07-08T17:55:36;27.90;99.90
14378;DHT22;7272;53.668;9.578;2023-07-08T17:58:38;27.80;99.90
14378;DHT22;7272;53.668;9.578;2023-07-08T18:01:39;27.50;99.90
14378;DHT22;7272;53.668;9.578;2023-07-08T18:04:41;27.40;99.90
14378;DHT22;7272;53.668;9.578;2023-07-08T18:07:44;27.30;99.90
14378;DHT22;7272;53.668;9.578;2023-07-08T18:10:46;27.20;99.90
14378;DHT22;7272;53.668;9.578;2023-07-08T18:13:48;27.20;99.90
14378;DHT22;7272;53.668;9.578;2023-07-08T18:16:50;27.10;99.90
14378;DHT22;7272;53.668;9.578;2023-07-08T18:19:52;27.00;99.90
14378;DHT22;7272;53.668;9.578;2023-07-08T18:22:53;26.80;99.90
14378;DHT22;7272;53.668;9.578;2023-07-08T18:25:55;26.70;99.90
14378;DHT22;7272;53.668;9.578;2023-07-08T18:28:56;26.50;99.90
14378;DHT22;7272;53.668;9.578;2023-07-08T18:31:58;26.30;99.90
14378;DHT22;7272;53.668;9.578;2023-07-08T18:35:00;26.10;99.90
14378;DHT22;7272;53.668;9.578;2023-07-08T18:38:01;25.90;99.90
14378;DHT22;7272;53.668;9.578;2023-07-08T18:41:02;25.90;99.90
14378;DHT22;7272;53.668;9.578;2023-07-08T18:44:06;25.80;99.90
14378;DHT22;7272;53.668;9.578;2023-07-08T18:47:09;25.60;99.90
14378;DHT22;7272;53.668;9.578;2023-07-08T18:50:12;25.50;99.90
14378;DHT22;7272;53.668;9.578;2023-07-08T18:53:15;25.40;99.90
14378;DHT22;7272;53.668;9.578;2023-07-08T18:56:17;25.30;99.90
14378;DHT22;7272;53.668;9.578;2023-07-08T18:59:19;25.10;99.90
14378;DHT22;7272;53.668;9.578;2023-07-08T19:02:30;25.00;99.90
14378;DHT22;7272;53.668;9.578;2023-07-08T19:05:32;24.80;99.90
14378;DHT22;7272;53.668;9.578;2023-07-08T19:08:34;24.70;99.90
14378;DHT22;7272;53.668;9.578;2023-07-08T19:11:37;24.70;99.90
14378;DHT22;7272;53.668;9.578;2023-07-08T19:14:38;24.60;99.90
14378;DHT22;7272;53.668;9.578;2023-07-08T19:17:40;24.50;99.90
14378;DHT22;7272;53.668;9.578;2023-07-08T19:20:44;24.40;99.90
14378;DHT22;7272;53.668;9.578;2023-07-08T19:23:47;24.40;99.90
14378;DHT22;7272;53.668;9.578;2023-07-08T19:26:49;24.20;99.90
14378;DHT22;7272;53.668;9.578;2023-07-08T19:29:50;24.10;99.90
14378;DHT22;7272;53.668;9.578;2023-07-08T19:32:55;23.90;99.90
14378;DHT22;7272;53.668;9.578;2023-07-08T19:35:57;23.80;99.90
14378;DHT22;7272;53.668;9.578;2023-07-08T19:39:01;23.70;99.90